PWSweather.com
Personal Weather Stations
Station Observations
PICKERING
North Yorkshire, PickeringGB

North YorkshirePickeringGB

Lat: 54.2494, Lon: -0.7725

Elevation: 192

Station Type: Oregon Scientific WMR100

http://www.yorkshirewalker.co.uk/weather/

High Low Average
Temperature 36.5°F2.5°C 31.8°F-0.1°C 33.9°F1.1°C
Dew Point 30.2°F-1.0°C 23.0°F-5.0°C 26.4°F-3.1°C
Winds 3.5 mph 5.6 kmh Calm Calm 1.0 mph SSW1.6 kmh SSW
Wind Gusts 6.3 mph10.1 kmh -- 2.0 mph3.2 kmh
Humidity 79% 67% 72%
Pressure 30.60 in1036.2 mb 30.54 in1034.2 mb -
Precipitation 0.00 in0.0 mm - -
Hour Temp Dew Point Humidity Winds Wind Gusts Pressure Precip Precip Rate Daily Precip Total
12:00 AM 34.7°F1.5°C 30.2°F-1.0°C 79% 0.2 mph WNW0.3 kmh WNW 0.9 mph1.4 kmh 30.60 in1036.2 mb 0.00 in0.0 mm 0.00 in0.0 mm 0.00 in0.0 mm
12:05 AM 34.5°F1.4°C 28.4°F-2.0°C 79% Calm Calm -- 30.60 in1036.2 mb 0.00 in0.0 mm 0.00 in0.0 mm 0.00 in0.0 mm
12:10 AM 34.5°F1.4°C 28.4°F-2.0°C 79% Calm Calm -- 30.60 in1036.2 mb 0.00 in0.0 mm 0.00 in0.0 mm 0.00 in0.0 mm
12:15 AM 34.5°F1.4°C 28.4°F-2.0°C 79% Calm Calm -- 30.60 in1036.2 mb 0.00 in0.0 mm 0.00 in0.0 mm 0.00 in0.0 mm
12:20 AM 34.5°F1.4°C 28.4°F-2.0°C 79% 0.1 mph NW0.2 kmh NW 0.9 mph1.4 kmh 30.60 in1036.2 mb 0.00 in0.0 mm 0.00 in0.0 mm 0.00 in0.0 mm
12:25 AM 34.5°F1.4°C 28.4°F-2.0°C 79% 0.1 mph W0.2 kmh W 1.1 mph1.8 kmh 30.60 in1036.2 mb 0.00 in0.0 mm 0.00 in0.0 mm 0.00 in0.0 mm
12:30 AM 34.5°F1.4°C 28.4°F-2.0°C 79% 0.3 mph WSW0.5 kmh WSW 1.1 mph1.8 kmh 30.60 in1036.2 mb 0.00 in0.0 mm 0.00 in0.0 mm 0.00 in0.0 mm
12:35 AM 34.7°F1.5°C 30.2°F-1.0°C 79% 0.3 mph WSW0.5 kmh WSW 1.1 mph1.8 kmh 30.60 in1036.2 mb 0.00 in0.0 mm 0.00 in0.0 mm 0.00 in0.0 mm
12:40 AM 34.5°F1.4°C 28.4°F-2.0°C 79% 0.1 mph WSW0.2 kmh WSW 0.9 mph1.4 kmh 30.60 in1036.2 mb 0.00 in0.0 mm 0.00 in0.0 mm 0.00 in0.0 mm
12:45 AM 34.7°F1.5°C 30.2°F-1.0°C 79% 0.1 mph WNW0.2 kmh WNW 0.9 mph1.4 kmh 30.60 in1036.2 mb 0.00 in0.0 mm 0.00 in0.0 mm 0.00 in0.0 mm
12:50 AM 34.7°F1.5°C 30.2°F-1.0°C 79% 0.1 mph WNW0.2 kmh WNW 0.9 mph1.4 kmh 30.60 in1036.2 mb 0.00 in0.0 mm 0.00 in0.0 mm 0.00 in0.0 mm
12:55 AM 34.7°F1.5°C 30.2°F-1.0°C 79% 0.3 mph NW0.5 kmh NW 1.3 mph2.1 kmh 30.60 in1036.2 mb 0.00 in0.0 mm 0.00 in0.0 mm 0.00 in0.0 mm
01:00 AM 34.9°F1.6°C 30.2°F-1.0°C 79% 0.9 mph NNW1.4 kmh NNW 2.7 mph4.3 kmh 30.60 in1036.2 mb 0.00 in0.0 mm 0.00 in0.0 mm 0.00 in0.0 mm
01:05 AM 34.9°F1.6°C 30.2°F-1.0°C 79% 1.1 mph N1.8 kmh N 2.7 mph4.3 kmh 30.60 in1036.2 mb 0.00 in0.0 mm 0.00 in0.0 mm 0.00 in0.0 mm
01:10 AM 34.9°F1.6°C 30.2°F-1.0°C 79% 1.4 mph N2.3 kmh N 3.4 mph5.5 kmh 30.60 in1036.2 mb 0.00 in0.0 mm 0.00 in0.0 mm 0.00 in0.0 mm
01:15 AM 34.9°F1.6°C 30.2°F-1.0°C 79% 1.7 mph N2.7 kmh N 3.4 mph5.5 kmh 30.60 in1036.2 mb 0.00 in0.0 mm 0.00 in0.0 mm 0.00 in0.0 mm
01:20 AM 35.1°F1.7°C 28.4°F-2.0°C 78% 1.6 mph N2.6 kmh N 3.8 mph6.1 kmh 30.60 in1036.2 mb 0.00 in0.0 mm 0.00 in0.0 mm 0.00 in0.0 mm
01:25 AM 35.1°F1.7°C 28.4°F-2.0°C 78% 1.7 mph N2.7 kmh N 3.8 mph6.1 kmh 30.60 in1036.2 mb 0.00 in0.0 mm 0.00 in0.0 mm 0.00 in0.0 mm
01:30 AM 35.2°F1.8°C 28.4°F-2.0°C 78% 2.1 mph NNW3.4 kmh NNW 3.8 mph6.1 kmh 30.60 in1036.2 mb 0.00 in0.0 mm 0.00 in0.0 mm 0.00 in0.0 mm
01:35 AM 35.1°F1.7°C 28.4°F-2.0°C 78% 1.9 mph N3.1 kmh N 3.4 mph5.5 kmh 30.60 in1036.2 mb 0.00 in0.0 mm 0.00 in0.0 mm 0.00 in0.0 mm
01:40 AM 35.1°F1.7°C 28.4°F-2.0°C 78% 1.7 mph N2.7 kmh N 3.1 mph5.0 kmh 30.60 in1036.2 mb 0.00 in0.0 mm 0.00 in0.0 mm 0.00 in0.0 mm
01:45 AM 35.1°F1.7°C 28.4°F-2.0°C 78% 2.0 mph N3.2 kmh N 2.9 mph4.7 kmh 30.60 in1036.2 mb 0.00 in0.0 mm 0.00 in0.0 mm 0.00 in0.0 mm
01:50 AM 35.1°F1.7°C 28.4°F-2.0°C 78% 2.1 mph N3.4 kmh N 3.1 mph5.0 kmh 30.60 in1036.2 mb 0.00 in0.0 mm 0.00 in0.0 mm 0.00 in0.0 mm
01:55 AM 35.1°F1.7°C 28.4°F-2.0°C 77% 2.0 mph N3.2 kmh N 4.5 mph7.2 kmh 30.60 in1036.2 mb 0.00 in0.0 mm 0.00 in0.0 mm 0.00 in0.0 mm
02:00 AM 35.1°F1.7°C 28.4°F-2.0°C 77% 2.1 mph N3.4 kmh N 4.5 mph7.2 kmh 30.60 in1036.2 mb 0.00 in0.0 mm 0.00 in0.0 mm 0.00 in0.0 mm
02:05 AM 35.1°F1.7°C 28.4°F-2.0°C 77% 2.0 mph NNW3.2 kmh NNW 3.1 mph5.0 kmh 30.60 in1036.2 mb 0.00 in0.0 mm 0.00 in0.0 mm 0.00 in0.0 mm
02:10 AM 35.1°F1.7°C 28.4°F-2.0°C 77% 1.7 mph NNW2.7 kmh NNW 3.1 mph5.0 kmh 30.60 in1036.2 mb 0.00 in0.0 mm 0.00 in0.0 mm 0.00 in0.0 mm
02:15 AM 35.1°F1.7°C 28.4°F-2.0°C 77% 1.6 mph N2.6 kmh N 2.7 mph4.3 kmh 30.60 in1036.2 mb 0.00 in0.0 mm 0.00 in0.0 mm 0.00 in0.0 mm
02:20 AM 35.1°F1.7°C 28.4°F-2.0°C 77% 1.4 mph NNE2.3 kmh NNE 2.7 mph4.3 kmh 30.60 in1036.2 mb 0.00 in0.0 mm 0.00 in0.0 mm 0.00 in0.0 mm
02:25 AM 35.1°F1.7°C 28.4°F-2.0°C 76% 1.9 mph N3.1 kmh N 3.6 mph5.8 kmh 30.60 in1036.2 mb 0.00 in0.0 mm 0.00 in0.0 mm 0.00 in0.0 mm
02:30 AM 35.1°F1.7°C 28.4°F-2.0°C 76% 2.5 mph N4.0 kmh N 4.3 mph6.9 kmh 30.60 in1036.2 mb 0.00 in0.0 mm 0.00 in0.0 mm 0.00 in0.0 mm
02:35 AM 35.1°F1.7°C 28.4°F-2.0°C 76% 1.6 mph N2.6 kmh N 4.3 mph6.9 kmh 30.60 in1036.2 mb 0.00 in0.0 mm 0.00 in0.0 mm 0.00 in0.0 mm
02:40 AM 34.9°F1.6°C 28.4°F-2.0°C 76% 0.9 mph N1.4 kmh N 2.7 mph4.3 kmh 30.60 in1036.2 mb 0.00 in0.0 mm 0.00 in0.0 mm 0.00 in0.0 mm
02:45 AM 34.9°F1.6°C 28.4°F-2.0°C 76% 1.0 mph N1.6 kmh N 2.9 mph4.7 kmh 30.60 in1036.2 mb 0.00 in0.0 mm 0.00 in0.0 mm 0.00 in0.0 mm
02:50 AM 34.9°F1.6°C 28.4°F-2.0°C 76% 1.7 mph N2.7 kmh N 3.4 mph5.5 kmh 30.60 in1036.2 mb 0.00 in0.0 mm 0.00 in0.0 mm 0.00 in0.0 mm
02:55 AM 34.9°F1.6°C 28.4°F-2.0°C 76% 2.4 mph N3.9 kmh N 4.3 mph6.9 kmh 30.60 in1036.2 mb 0.00 in0.0 mm 0.00 in0.0 mm 0.00 in0.0 mm
03:00 AM 34.9°F1.6°C 28.4°F-2.0°C 76% 2.1 mph N3.4 kmh N 4.3 mph6.9 kmh 30.60 in1036.2 mb 0.00 in0.0 mm 0.00 in0.0 mm 0.00 in0.0 mm
03:05 AM 34.9°F1.6°C 28.4°F-2.0°C 76% 1.4 mph N2.3 kmh N 3.1 mph5.0 kmh 30.60 in1036.2 mb 0.00 in0.0 mm 0.00 in0.0 mm 0.00 in0.0 mm
03:10 AM 34.9°F1.6°C 28.4°F-2.0°C 76% 1.4 mph NNW2.3 kmh NNW 3.4 mph5.5 kmh 30.60 in1036.2 mb 0.00 in0.0 mm 0.00 in0.0 mm 0.00 in0.0 mm
03:15 AM 34.9°F1.6°C 28.4°F-2.0°C 76% 1.3 mph NNW2.1 kmh NNW 3.4 mph5.5 kmh 30.60 in1036.2 mb 0.00 in0.0 mm 0.00 in0.0 mm 0.00 in0.0 mm
03:20 AM 34.7°F1.5°C 28.4°F-2.0°C 76% 1.1 mph NNW1.8 kmh NNW 2.9 mph4.7 kmh 30.60 in1036.2 mb 0.00 in0.0 mm 0.00 in0.0 mm 0.00 in0.0 mm
03:25 AM 34.7°F1.5°C 28.4°F-2.0°C 75% 1.2 mph NW1.9 kmh NW 3.1 mph5.0 kmh 30.60 in1036.2 mb 0.00 in0.0 mm 0.00 in0.0 mm 0.00 in0.0 mm
03:30 AM 34.7°F1.5°C 28.4°F-2.0°C 75% 1.6 mph NNW2.6 kmh NNW 3.1 mph5.0 kmh 30.60 in1036.2 mb 0.00 in0.0 mm 0.00 in0.0 mm 0.00 in0.0 mm
03:35 AM 34.7°F1.5°C 28.4°F-2.0°C 75% 1.8 mph NW2.9 kmh NW 4.0 mph6.4 kmh 30.60 in1036.2 mb 0.00 in0.0 mm 0.00 in0.0 mm 0.00 in0.0 mm
03:40 AM 34.7°F1.5°C 28.4°F-2.0°C 75% 1.9 mph NW3.1 kmh NW 4.0 mph6.4 kmh 30.60 in1036.2 mb 0.00 in0.0 mm 0.00 in0.0 mm 0.00 in0.0 mm
03:45 AM 34.5°F1.4°C 28.4°F-2.0°C 75% 2.0 mph NW3.2 kmh NW 2.9 mph4.7 kmh 30.60 in1036.2 mb 0.00 in0.0 mm 0.00 in0.0 mm 0.00 in0.0 mm
03:50 AM 34.5°F1.4°C 28.4°F-2.0°C 75% 1.7 mph NW2.7 kmh NW 2.9 mph4.7 kmh 30.60 in1036.2 mb 0.00 in0.0 mm 0.00 in0.0 mm 0.00 in0.0 mm
03:55 AM 34.5°F1.4°C 28.4°F-2.0°C 75% 1.7 mph NW2.7 kmh NW 4.3 mph6.9 kmh 30.60 in1036.2 mb 0.00 in0.0 mm 0.00 in0.0 mm 0.00 in0.0 mm
04:00 AM 34.5°F1.4°C 28.4°F-2.0°C 75% 2.0 mph NNW3.2 kmh NNW 4.3 mph6.9 kmh 30.60 in1036.2 mb 0.00 in0.0 mm 0.00 in0.0 mm 0.00 in0.0 mm
04:05 AM 34.5°F1.4°C 28.4°F-2.0°C 75% 2.1 mph NNW3.4 kmh NNW 3.4 mph5.5 kmh 30.60 in1036.2 mb 0.00 in0.0 mm 0.00 in0.0 mm 0.00 in0.0 mm
04:10 AM 34.5°F1.4°C 26.6°F-3.0°C 74% 1.8 mph NNW2.9 kmh NNW 3.6 mph5.8 kmh 30.60 in1036.2 mb 0.00 in0.0 mm 0.00 in0.0 mm 0.00 in0.0 mm
04:15 AM 34.5°F1.4°C 26.6°F-3.0°C 74% 2.0 mph NNW3.2 kmh NNW 4.0 mph6.4 kmh 30.60 in1036.2 mb 0.00 in0.0 mm 0.00 in0.0 mm 0.00 in0.0 mm
04:20 AM 34.5°F1.4°C 26.6°F-3.0°C 74% 2.5 mph NNW4.0 kmh NNW 4.0 mph6.4 kmh 30.57 in1035.2 mb 0.00 in0.0 mm 0.00 in0.0 mm 0.00 in0.0 mm
04:25 AM 34.3°F1.3°C 26.6°F-3.0°C 74% 2.0 mph NNW3.2 kmh NNW 3.8 mph6.1 kmh 30.57 in1035.2 mb 0.00 in0.0 mm 0.00 in0.0 mm 0.00 in0.0 mm
04:30 AM 34.3°F1.3°C 26.6°F-3.0°C 74% 2.3 mph NW3.7 kmh NW 6.3 mph10.1 kmh 30.57 in1035.2 mb 0.00 in0.0 mm 0.00 in0.0 mm 0.00 in0.0 mm
04:35 AM 34.5°F1.4°C 26.6°F-3.0°C 74% 3.0 mph NW4.8 kmh NW 6.3 mph10.1 kmh 30.57 in1035.2 mb 0.00 in0.0 mm 0.00 in0.0 mm 0.00 in0.0 mm
04:40 AM 34.3°F1.3°C 26.6°F-3.0°C 74% 2.8 mph NNW4.5 kmh NNW 4.7 mph7.6 kmh 30.57 in1035.2 mb 0.00 in0.0 mm 0.00 in0.0 mm 0.00 in0.0 mm
04:45 AM 34.3°F1.3°C 26.6°F-3.0°C 74% 2.6 mph NW4.2 kmh NW 5.4 mph8.7 kmh 30.57 in1035.2 mb 0.00 in0.0 mm 0.00 in0.0 mm 0.00 in0.0 mm
04:50 AM 34.2°F1.2°C 26.6°F-3.0°C 74% 2.6 mph NW4.2 kmh NW 5.4 mph8.7 kmh 30.57 in1035.2 mb 0.00 in0.0 mm 0.00 in0.0 mm 0.00 in0.0 mm
04:55 AM 34.2°F1.2°C 26.6°F-3.0°C 74% 2.1 mph NW3.4 kmh NW 3.8 mph6.1 kmh 30.57 in1035.2 mb 0.00 in0.0 mm 0.00 in0.0 mm 0.00 in0.0 mm
05:00 AM 34.2°F1.2°C 26.6°F-3.0°C 74% 2.3 mph NW3.7 kmh NW 4.3 mph6.9 kmh 30.57 in1035.2 mb 0.00 in0.0 mm 0.00 in0.0 mm 0.00 in0.0 mm
05:05 AM 34.2°F1.2°C 26.6°F-3.0°C 74% 2.3 mph NW3.7 kmh NW 4.3 mph6.9 kmh 30.57 in1035.2 mb 0.00 in0.0 mm 0.00 in0.0 mm 0.00 in0.0 mm
05:10 AM 34.0°F1.1°C 26.6°F-3.0°C 74% 2.3 mph NW3.7 kmh NW 3.1 mph5.0 kmh 30.57 in1035.2 mb 0.00 in0.0 mm 0.00 in0.0 mm 0.00 in0.0 mm
05:15 AM 34.0°F1.1°C 26.6°F-3.0°C 74% 2.6 mph NW4.2 kmh NW 4.9 mph7.9 kmh 30.57 in1035.2 mb 0.00 in0.0 mm 0.00 in0.0 mm 0.00 in0.0 mm
05:20 AM 34.0°F1.1°C 26.6°F-3.0°C 73% 1.8 mph NW2.9 kmh NW 4.9 mph7.9 kmh 30.57 in1035.2 mb 0.00 in0.0 mm 0.00 in0.0 mm 0.00 in0.0 mm
05:25 AM 34.0°F1.1°C 26.6°F-3.0°C 73% 1.8 mph NNW2.9 kmh NNW 3.6 mph5.8 kmh 30.57 in1035.2 mb 0.00 in0.0 mm 0.00 in0.0 mm 0.00 in0.0 mm
05:30 AM 34.0°F1.1°C 26.6°F-3.0°C 73% 2.8 mph NNW4.5 kmh NNW 5.8 mph9.3 kmh 30.57 in1035.2 mb 0.00 in0.0 mm 0.00 in0.0 mm 0.00 in0.0 mm
05:35 AM 34.0°F1.1°C 26.6°F-3.0°C 73% 3.5 mph NNW5.6 kmh NNW 5.8 mph9.3 kmh 30.57 in1035.2 mb 0.00 in0.0 mm 0.00 in0.0 mm 0.00 in0.0 mm
05:40 AM 33.8°F1.0°C 26.6°F-3.0°C 73% 2.8 mph NNW4.5 kmh NNW 4.9 mph7.9 kmh 30.57 in1035.2 mb 0.00 in0.0 mm 0.00 in0.0 mm 0.00 in0.0 mm
05:45 AM 33.8°F1.0°C 26.6°F-3.0°C 73% 2.8 mph NNW4.5 kmh NNW 4.9 mph7.9 kmh 30.57 in1035.2 mb 0.00 in0.0 mm 0.00 in0.0 mm 0.00 in0.0 mm
05:50 AM 33.6°F0.9°C 26.6°F-3.0°C 72% 2.5 mph NW4.0 kmh NW 3.8 mph6.1 kmh 30.57 in1035.2 mb 0.00 in0.0 mm 0.00 in0.0 mm 0.00 in0.0 mm
05:55 AM 33.6°F0.9°C 26.6°F-3.0°C 72% 2.1 mph NW3.4 kmh NW 4.9 mph7.9 kmh 30.57 in1035.2 mb 0.00 in0.0 mm 0.00 in0.0 mm 0.00 in0.0 mm
06:00 AM 33.3°F0.7°C 26.6°F-3.0°C 72% 1.8 mph NW2.9 kmh NW 4.9 mph7.9 kmh 30.57 in1035.2 mb 0.00 in0.0 mm 0.00 in0.0 mm 0.00 in0.0 mm
06:05 AM 33.3°F0.7°C 26.6°F-3.0°C 72% 2.3 mph N3.7 kmh N 3.6 mph5.8 kmh 30.57 in1035.2 mb 0.00 in0.0 mm 0.00 in0.0 mm 0.00 in0.0 mm
06:10 AM 33.4°F0.8°C 26.6°F-3.0°C 72% 2.5 mph NNW4.0 kmh NNW 4.0 mph6.4 kmh 30.57 in1035.2 mb 0.00 in0.0 mm 0.00 in0.0 mm 0.00 in0.0 mm
06:15 AM 33.4°F0.8°C 26.6°F-3.0°C 72% 2.7 mph NW4.3 kmh NW 4.0 mph6.4 kmh 30.57 in1035.2 mb 0.00 in0.0 mm 0.00 in0.0 mm 0.00 in0.0 mm
06:20 AM 33.4°F0.8°C 26.6°F-3.0°C 72% 3.0 mph NNW4.8 kmh NNW 4.9 mph7.9 kmh 30.57 in1035.2 mb 0.00 in0.0 mm 0.00 in0.0 mm 0.00 in0.0 mm
06:25 AM 33.4°F0.8°C 26.6°F-3.0°C 72% 3.0 mph N4.8 kmh N 6.3 mph10.1 kmh 30.57 in1035.2 mb 0.00 in0.0 mm 0.00 in0.0 mm 0.00 in0.0 mm
06:30 AM 33.3°F0.7°C 26.6°F-3.0°C 72% 2.9 mph NNW4.7 kmh NNW 6.3 mph10.1 kmh 30.57 in1035.2 mb 0.00 in0.0 mm 0.00 in0.0 mm 0.00 in0.0 mm
06:35 AM 33.3°F0.7°C 26.6°F-3.0°C 72% 2.8 mph NNW4.5 kmh NNW 4.9 mph7.9 kmh 30.57 in1035.2 mb 0.00 in0.0 mm 0.00 in0.0 mm 0.00 in0.0 mm
06:40 AM 33.3°F0.7°C 26.6°F-3.0°C 72% 2.6 mph NNW4.2 kmh NNW 4.9 mph7.9 kmh 30.57 in1035.2 mb 0.00 in0.0 mm 0.00 in0.0 mm 0.00 in0.0 mm
06:45 AM 33.3°F0.7°C 26.6°F-3.0°C 72% 2.1 mph NW3.4 kmh NW 4.7 mph7.6 kmh 30.57 in1035.2 mb 0.00 in0.0 mm 0.00 in0.0 mm 0.00 in0.0 mm
06:50 AM 33.3°F0.7°C 24.8°F-4.0°C 71% 2.3 mph NW3.7 kmh NW 3.8 mph6.1 kmh 30.57 in1035.2 mb 0.00 in0.0 mm 0.00 in0.0 mm 0.00 in0.0 mm
06:55 AM 33.3°F0.7°C 24.8°F-4.0°C 71% 1.9 mph NW3.1 kmh NW 3.8 mph6.1 kmh 30.57 in1035.2 mb 0.00 in0.0 mm 0.00 in0.0 mm 0.00 in0.0 mm
07:00 AM 33.1°F0.6°C 24.8°F-4.0°C 71% 1.4 mph NW2.3 kmh NW 3.8 mph6.1 kmh 30.57 in1035.2 mb 0.00 in0.0 mm 0.00 in0.0 mm 0.00 in0.0 mm
07:05 AM 33.1°F0.6°C 24.8°F-4.0°C 71% 1.9 mph NNW3.1 kmh NNW 4.3 mph6.9 kmh 30.60 in1036.2 mb 0.00 in0.0 mm 0.00 in0.0 mm 0.00 in0.0 mm
07:10 AM 33.1°F0.6°C 24.8°F-4.0°C 71% 1.9 mph NNW3.1 kmh NNW 4.3 mph6.9 kmh 30.60 in1036.2 mb 0.00 in0.0 mm 0.00 in0.0 mm 0.00 in0.0 mm
07:15 AM 32.9°F0.5°C 24.8°F-4.0°C 71% 1.8 mph NW2.9 kmh NW 3.1 mph5.0 kmh 30.60 in1036.2 mb 0.00 in0.0 mm 0.00 in0.0 mm 0.00 in0.0 mm
07:20 AM 32.9°F0.5°C 24.8°F-4.0°C 71% 2.2 mph NW3.5 kmh NW 3.1 mph5.0 kmh 30.60 in1036.2 mb 0.00 in0.0 mm 0.00 in0.0 mm 0.00 in0.0 mm
07:25 AM 32.9°F0.5°C 24.8°F-4.0°C 71% 2.6 mph NNW4.2 kmh NNW 4.0 mph6.4 kmh 30.60 in1036.2 mb 0.00 in0.0 mm 0.00 in0.0 mm 0.00 in0.0 mm
07:30 AM 32.9°F0.5°C 24.8°F-4.0°C 71% 2.7 mph NW4.3 kmh NW 4.0 mph6.4 kmh 30.60 in1036.2 mb 0.00 in0.0 mm 0.00 in0.0 mm 0.00 in0.0 mm
07:35 AM 32.9°F0.5°C 24.8°F-4.0°C 71% 2.7 mph NW4.3 kmh NW 4.9 mph7.9 kmh 30.60 in1036.2 mb 0.00 in0.0 mm 0.00 in0.0 mm 0.00 in0.0 mm
07:40 AM 32.7°F0.4°C 24.8°F-4.0°C 70% 2.3 mph NW3.7 kmh NW 4.9 mph7.9 kmh 30.60 in1036.2 mb 0.00 in0.0 mm 0.00 in0.0 mm 0.00 in0.0 mm
07:45 AM 32.7°F0.4°C 24.8°F-4.0°C 70% 1.9 mph NW3.1 kmh NW 3.8 mph6.1 kmh 30.60 in1036.2 mb 0.00 in0.0 mm 0.00 in0.0 mm 0.00 in0.0 mm
07:50 AM 32.7°F0.4°C 24.8°F-4.0°C 70% 2.1 mph WNW3.4 kmh WNW 3.4 mph5.5 kmh 30.60 in1036.2 mb 0.00 in0.0 mm 0.00 in0.0 mm 0.00 in0.0 mm
07:55 AM 32.7°F0.4°C 24.8°F-4.0°C 70% 1.5 mph W2.4 kmh W 2.9 mph4.7 kmh 30.60 in1036.2 mb 0.00 in0.0 mm 0.00 in0.0 mm 0.00 in0.0 mm
08:00 AM 32.9°F0.5°C 24.8°F-4.0°C 70% 1.4 mph WSW2.3 kmh WSW 3.4 mph5.5 kmh 30.60 in1036.2 mb 0.00 in0.0 mm 0.00 in0.0 mm 0.00 in0.0 mm
08:05 AM 32.9°F0.5°C 24.8°F-4.0°C 70% 1.4 mph WSW2.3 kmh WSW 3.4 mph5.5 kmh 30.60 in1036.2 mb 0.00 in0.0 mm 0.00 in0.0 mm 0.00 in0.0 mm
08:10 AM 32.5°F0.3°C 24.8°F-4.0°C 70% 0.4 mph WSW0.6 kmh WSW 2.0 mph3.2 kmh 30.60 in1036.2 mb 0.00 in0.0 mm 0.00 in0.0 mm 0.00 in0.0 mm
08:15 AM 32.5°F0.3°C 24.8°F-4.0°C 70% Calm Calm -- 30.60 in1036.2 mb 0.00 in0.0 mm 0.00 in0.0 mm 0.00 in0.0 mm
08:20 AM 32.5°F0.3°C 24.8°F-4.0°C 71% Calm Calm -- 30.60 in1036.2 mb 0.00 in0.0 mm 0.00 in0.0 mm 0.00 in0.0 mm
08:25 AM 32.5°F0.3°C 24.8°F-4.0°C 71% Calm Calm -- 30.60 in1036.2 mb 0.00 in0.0 mm 0.00 in0.0 mm 0.00 in0.0 mm
08:30 AM 32.7°F0.4°C 24.8°F-4.0°C 71% 0.3 mph NW0.5 kmh NW 3.4 mph5.5 kmh 30.60 in1036.2 mb 0.00 in0.0 mm 0.00 in0.0 mm 0.00 in0.0 mm
08:35 AM 32.7°F0.4°C 24.8°F-4.0°C 71% 0.3 mph NW0.5 kmh NW 3.4 mph5.5 kmh 30.60 in1036.2 mb 0.00 in0.0 mm 0.00 in0.0 mm 0.00 in0.0 mm
08:40 AM 32.7°F0.4°C 24.8°F-4.0°C 71% Calm Calm -- 30.60 in1036.2 mb 0.00 in0.0 mm 0.00 in0.0 mm 0.00 in0.0 mm
08:45 AM 33.1°F0.6°C 24.8°F-4.0°C 71% 0.8 mph WSW1.3 kmh WSW 2.5 mph4.0 kmh 30.60 in1036.2 mb 0.00 in0.0 mm 0.00 in0.0 mm 0.00 in0.0 mm
08:50 AM 33.1°F0.6°C 24.8°F-4.0°C 70% 1.4 mph WSW2.3 kmh WSW 2.5 mph4.0 kmh 30.60 in1036.2 mb 0.00 in0.0 mm 0.00 in0.0 mm 0.00 in0.0 mm
08:55 AM 33.1°F0.6°C 24.8°F-4.0°C 70% 1.3 mph WSW2.1 kmh WSW 3.1 mph5.0 kmh 30.60 in1036.2 mb 0.00 in0.0 mm 0.00 in0.0 mm 0.00 in0.0 mm
09:00 AM 33.3°F0.7°C 24.8°F-4.0°C 70% 1.7 mph WSW2.7 kmh WSW 3.4 mph5.5 kmh 30.60 in1036.2 mb 0.00 in0.0 mm 0.00 in0.0 mm 0.00 in0.0 mm
09:05 AM 33.3°F0.7°C 24.8°F-4.0°C 70% 1.6 mph WSW2.6 kmh WSW 3.4 mph5.5 kmh 30.60 in1036.2 mb 0.00 in0.0 mm 0.00 in0.0 mm 0.00 in0.0 mm
09:10 AM 33.3°F0.7°C 24.8°F-4.0°C 70% 1.2 mph WSW1.9 kmh WSW 2.5 mph4.0 kmh 30.60 in1036.2 mb 0.00 in0.0 mm 0.00 in0.0 mm 0.00 in0.0 mm
09:15 AM 33.3°F0.7°C 24.8°F-4.0°C 70% 0.9 mph W1.4 kmh W 2.5 mph4.0 kmh 30.60 in1036.2 mb 0.00 in0.0 mm 0.00 in0.0 mm 0.00 in0.0 mm
09:20 AM 33.4°F0.8°C 24.8°F-4.0°C 70% 1.0 mph WSW1.6 kmh WSW 3.8 mph6.1 kmh 30.60 in1036.2 mb 0.00 in0.0 mm 0.00 in0.0 mm 0.00 in0.0 mm
09:25 AM 33.4°F0.8°C 24.8°F-4.0°C 70% 1.3 mph WSW2.1 kmh WSW 3.8 mph6.1 kmh 30.60 in1036.2 mb 0.00 in0.0 mm 0.00 in0.0 mm 0.00 in0.0 mm
09:30 AM 33.6°F0.9°C 24.8°F-4.0°C 70% 1.4 mph WSW2.3 kmh WSW 2.5 mph4.0 kmh 30.60 in1036.2 mb 0.00 in0.0 mm 0.00 in0.0 mm 0.00 in0.0 mm
09:35 AM 33.6°F0.9°C 24.8°F-4.0°C 70% 1.2 mph WSW1.9 kmh WSW 2.2 mph3.5 kmh 30.60 in1036.2 mb 0.00 in0.0 mm 0.00 in0.0 mm 0.00 in0.0 mm
09:40 AM 33.8°F1.0°C 24.8°F-4.0°C 70% 1.3 mph W2.1 kmh W 2.0 mph3.2 kmh 30.60 in1036.2 mb 0.00 in0.0 mm 0.00 in0.0 mm 0.00 in0.0 mm
09:45 AM 33.8°F1.0°C 24.8°F-4.0°C 70% 1.4 mph WNW2.3 kmh WNW 2.0 mph3.2 kmh 30.60 in1036.2 mb 0.00 in0.0 mm 0.00 in0.0 mm 0.00 in0.0 mm
09:50 AM 34.0°F1.1°C 24.8°F-4.0°C 69% 2.4 mph WNW3.9 kmh WNW 4.3 mph6.9 kmh 30.60 in1036.2 mb 0.00 in0.0 mm 0.00 in0.0 mm 0.00 in0.0 mm
09:55 AM 34.0°F1.1°C 24.8°F-4.0°C 69% 2.3 mph WNW3.7 kmh WNW 4.3 mph6.9 kmh 30.60 in1036.2 mb 0.00 in0.0 mm 0.00 in0.0 mm 0.00 in0.0 mm
10:00 AM 34.0°F1.1°C 24.8°F-4.0°C 69% 1.3 mph W2.1 kmh W 3.1 mph5.0 kmh 30.60 in1036.2 mb 0.00 in0.0 mm 0.00 in0.0 mm 0.00 in0.0 mm
10:05 AM 34.2°F1.2°C 26.6°F-3.0°C 70% 1.4 mph W2.3 kmh W 3.1 mph5.0 kmh 30.60 in1036.2 mb 0.00 in0.0 mm 0.00 in0.0 mm 0.00 in0.0 mm
10:10 AM 34.2°F1.2°C 26.6°F-3.0°C 70% 1.4 mph WSW2.3 kmh WSW 3.1 mph5.0 kmh 30.60 in1036.2 mb 0.00 in0.0 mm 0.00 in0.0 mm 0.00 in0.0 mm
10:15 AM 34.3°F1.3°C 24.8°F-4.0°C 69% 1.3 mph WSW2.1 kmh WSW 2.5 mph4.0 kmh 30.60 in1036.2 mb 0.00 in0.0 mm 0.00 in0.0 mm 0.00 in0.0 mm
10:20 AM 34.3°F1.3°C 24.8°F-4.0°C 69% 1.8 mph WSW2.9 kmh WSW 3.1 mph5.0 kmh 30.60 in1036.2 mb 0.00 in0.0 mm 0.00 in0.0 mm 0.00 in0.0 mm
10:25 AM 34.5°F1.4°C 24.8°F-4.0°C 69% 2.2 mph WSW3.5 kmh WSW 3.1 mph5.0 kmh 30.60 in1036.2 mb 0.00 in0.0 mm 0.00 in0.0 mm 0.00 in0.0 mm
10:30 AM 34.5°F1.4°C 24.8°F-4.0°C 69% 2.3 mph WSW3.7 kmh WSW 3.6 mph5.8 kmh 30.60 in1036.2 mb 0.00 in0.0 mm 0.00 in0.0 mm 0.00 in0.0 mm
10:35 AM 34.7°F1.5°C 26.6°F-3.0°C 69% 1.9 mph WSW3.1 kmh WSW 3.6 mph5.8 kmh 30.60 in1036.2 mb 0.00 in0.0 mm 0.00 in0.0 mm 0.00 in0.0 mm
10:40 AM 34.7°F1.5°C 26.6°F-3.0°C 69% 1.6 mph WSW2.6 kmh WSW 3.6 mph5.8 kmh 30.60 in1036.2 mb 0.00 in0.0 mm 0.00 in0.0 mm 0.00 in0.0 mm
10:45 AM 34.9°F1.6°C 26.6°F-3.0°C 69% 1.8 mph WSW2.9 kmh WSW 3.6 mph5.8 kmh 30.60 in1036.2 mb 0.00 in0.0 mm 0.00 in0.0 mm 0.00 in0.0 mm
10:50 AM 34.9°F1.6°C 26.6°F-3.0°C 69% 2.0 mph WSW3.2 kmh WSW 3.4 mph5.5 kmh 30.60 in1036.2 mb 0.00 in0.0 mm 0.00 in0.0 mm 0.00 in0.0 mm
10:55 AM 34.9°F1.6°C 26.6°F-3.0°C 68% 1.8 mph WSW2.9 kmh WSW 3.4 mph5.5 kmh 30.60 in1036.2 mb 0.00 in0.0 mm 0.00 in0.0 mm 0.00 in0.0 mm
11:00 AM 35.1°F1.7°C 26.6°F-3.0°C 68% 1.8 mph WSW2.9 kmh WSW 3.6 mph5.8 kmh 30.60 in1036.2 mb 0.00 in0.0 mm 0.00 in0.0 mm 0.00 in0.0 mm
11:05 AM 35.1°F1.7°C 26.6°F-3.0°C 68% 1.1 mph WSW1.8 kmh WSW 3.6 mph5.8 kmh 30.60 in1036.2 mb 0.00 in0.0 mm 0.00 in0.0 mm 0.00 in0.0 mm
11:10 AM 35.2°F1.8°C 26.6°F-3.0°C 68% 0.5 mph WSW0.8 kmh WSW 2.9 mph4.7 kmh 30.60 in1036.2 mb 0.00 in0.0 mm 0.00 in0.0 mm 0.00 in0.0 mm
11:15 AM 35.2°F1.8°C 26.6°F-3.0°C 68% 1.5 mph WSW2.4 kmh WSW 2.5 mph4.0 kmh 30.60 in1036.2 mb 0.00 in0.0 mm 0.00 in0.0 mm 0.00 in0.0 mm
11:20 AM 35.2°F1.8°C 26.6°F-3.0°C 68% 1.7 mph WSW2.7 kmh WSW 2.9 mph4.7 kmh 30.60 in1036.2 mb 0.00 in0.0 mm 0.00 in0.0 mm 0.00 in0.0 mm
11:25 AM 35.2°F1.8°C 26.6°F-3.0°C 68% 1.5 mph WSW2.4 kmh WSW 2.9 mph4.7 kmh 30.60 in1036.2 mb 0.00 in0.0 mm 0.00 in0.0 mm 0.00 in0.0 mm
11:30 AM 35.4°F1.9°C 26.6°F-3.0°C 68% 1.6 mph WSW2.6 kmh WSW 2.9 mph4.7 kmh 30.60 in1036.2 mb 0.00 in0.0 mm 0.00 in0.0 mm 0.00 in0.0 mm
11:35 AM 35.6°F2.0°C 26.6°F-3.0°C 68% 1.9 mph WSW3.1 kmh WSW 4.3 mph6.9 kmh 30.60 in1036.2 mb 0.00 in0.0 mm 0.00 in0.0 mm 0.00 in0.0 mm
11:40 AM 35.6°F2.0°C 26.6°F-3.0°C 68% 2.4 mph WSW3.9 kmh WSW 4.3 mph6.9 kmh 30.60 in1036.2 mb 0.00 in0.0 mm 0.00 in0.0 mm 0.00 in0.0 mm
11:45 AM 35.6°F2.0°C 26.6°F-3.0°C 68% 2.1 mph SW3.4 kmh SW 3.6 mph5.8 kmh 30.60 in1036.2 mb 0.00 in0.0 mm 0.00 in0.0 mm 0.00 in0.0 mm
11:50 AM 35.6°F2.0°C 26.6°F-3.0°C 68% 1.9 mph SW3.1 kmh SW 3.8 mph6.1 kmh 30.60 in1036.2 mb 0.00 in0.0 mm 0.00 in0.0 mm 0.00 in0.0 mm
11:55 AM 35.6°F2.0°C 26.6°F-3.0°C 68% 1.4 mph WSW2.3 kmh WSW 3.8 mph6.1 kmh 30.60 in1036.2 mb 0.00 in0.0 mm 0.00 in0.0 mm 0.00 in0.0 mm
12:00 PM 35.8°F2.1°C 26.6°F-3.0°C 68% 0.9 mph SW1.4 kmh SW 2.9 mph4.7 kmh 30.60 in1036.2 mb 0.00 in0.0 mm 0.00 in0.0 mm 0.00 in0.0 mm
12:05 PM 35.8°F2.1°C 26.6°F-3.0°C 67% 1.3 mph WSW2.1 kmh WSW 2.9 mph4.7 kmh 30.60 in1036.2 mb 0.00 in0.0 mm 0.00 in0.0 mm 0.00 in0.0 mm
12:10 PM 36.0°F2.2°C 26.6°F-3.0°C 68% 1.4 mph SW2.3 kmh SW 2.7 mph4.3 kmh 30.60 in1036.2 mb 0.00 in0.0 mm 0.00 in0.0 mm 0.00 in0.0 mm
12:15 PM 36.0°F2.2°C 26.6°F-3.0°C 68% 1.0 mph SW1.6 kmh SW 2.7 mph4.3 kmh 30.60 in1036.2 mb 0.00 in0.0 mm 0.00 in0.0 mm 0.00 in0.0 mm
12:20 PM 36.0°F2.2°C 26.6°F-3.0°C 67% 1.2 mph WSW1.9 kmh WSW 2.7 mph4.3 kmh 30.60 in1036.2 mb 0.00 in0.0 mm 0.00 in0.0 mm 0.00 in0.0 mm
12:25 PM 36.1°F2.3°C 26.6°F-3.0°C 68% 1.5 mph WSW2.4 kmh WSW 2.7 mph4.3 kmh 30.57 in1035.2 mb 0.00 in0.0 mm 0.00 in0.0 mm 0.00 in0.0 mm
12:30 PM 36.1°F2.3°C 26.6°F-3.0°C 67% 1.4 mph WSW2.3 kmh WSW 3.1 mph5.0 kmh 30.57 in1035.2 mb 0.00 in0.0 mm 0.00 in0.0 mm 0.00 in0.0 mm
12:35 PM 36.1°F2.3°C 26.6°F-3.0°C 67% 1.8 mph WSW2.9 kmh WSW 3.1 mph5.0 kmh 30.57 in1035.2 mb 0.00 in0.0 mm 0.00 in0.0 mm 0.00 in0.0 mm
12:40 PM 36.1°F2.3°C 26.6°F-3.0°C 68% 1.9 mph WSW3.1 kmh WSW 3.6 mph5.8 kmh 30.60 in1036.2 mb 0.00 in0.0 mm 0.00 in0.0 mm 0.00 in0.0 mm
12:45 PM 36.3°F2.4°C 26.6°F-3.0°C 68% 1.4 mph WSW2.3 kmh WSW 3.6 mph5.8 kmh 30.60 in1036.2 mb 0.00 in0.0 mm 0.00 in0.0 mm 0.00 in0.0 mm
12:50 PM 36.3°F2.4°C 26.6°F-3.0°C 68% 1.3 mph WSW2.1 kmh WSW 3.1 mph5.0 kmh 30.60 in1036.2 mb 0.00 in0.0 mm 0.00 in0.0 mm 0.00 in0.0 mm
12:55 PM 36.3°F2.4°C 26.6°F-3.0°C 68% 2.3 mph WSW3.7 kmh WSW 3.6 mph5.8 kmh 30.57 in1035.2 mb 0.00 in0.0 mm 0.00 in0.0 mm 0.00 in0.0 mm
01:00 PM 36.1°F2.3°C 26.6°F-3.0°C 68% 2.7 mph WSW4.3 kmh WSW 4.3 mph6.9 kmh 30.57 in1035.2 mb 0.00 in0.0 mm 0.00 in0.0 mm 0.00 in0.0 mm
01:05 PM 36.1°F2.3°C 26.6°F-3.0°C 68% 2.5 mph WSW4.0 kmh WSW 4.3 mph6.9 kmh 30.57 in1035.2 mb 0.00 in0.0 mm 0.00 in0.0 mm 0.00 in0.0 mm
01:10 PM 36.1°F2.3°C 26.6°F-3.0°C 68% 1.8 mph WSW2.9 kmh WSW 4.3 mph6.9 kmh 30.57 in1035.2 mb 0.00 in0.0 mm 0.00 in0.0 mm 0.00 in0.0 mm
01:15 PM 36.3°F2.4°C 26.6°F-3.0°C 68% 1.6 mph WSW2.6 kmh WSW 2.9 mph4.7 kmh 30.57 in1035.2 mb 0.00 in0.0 mm 0.00 in0.0 mm 0.00 in0.0 mm
01:20 PM 36.3°F2.4°C 26.6°F-3.0°C 68% 2.0 mph W3.2 kmh W 3.6 mph5.8 kmh 30.57 in1035.2 mb 0.00 in0.0 mm 0.00 in0.0 mm 0.00 in0.0 mm
01:25 PM 36.5°F2.5°C 26.6°F-3.0°C 67% 2.7 mph W4.3 kmh W 4.9 mph7.9 kmh 30.57 in1035.2 mb 0.00 in0.0 mm 0.00 in0.0 mm 0.00 in0.0 mm
01:30 PM 36.3°F2.4°C 26.6°F-3.0°C 67% 2.7 mph WSW4.3 kmh WSW 4.9 mph7.9 kmh 30.57 in1035.2 mb 0.00 in0.0 mm 0.00 in0.0 mm 0.00 in0.0 mm
01:35 PM 36.3°F2.4°C 26.6°F-3.0°C 67% 1.6 mph WSW2.6 kmh WSW 2.9 mph4.7 kmh 30.57 in1035.2 mb 0.00 in0.0 mm 0.00 in0.0 mm 0.00 in0.0 mm
01:40 PM 36.3°F2.4°C 26.6°F-3.0°C 67% 1.5 mph WSW2.4 kmh WSW 4.3 mph6.9 kmh 30.57 in1035.2 mb 0.00 in0.0 mm 0.00 in0.0 mm 0.00 in0.0 mm
01:45 PM 36.1°F2.3°C 26.6°F-3.0°C 67% 1.7 mph WSW2.7 kmh WSW 4.3 mph6.9 kmh 30.57 in1035.2 mb 0.00 in0.0 mm 0.00 in0.0 mm 0.00 in0.0 mm
01:50 PM 36.1°F2.3°C 26.6°F-3.0°C 67% 2.2 mph WSW3.5 kmh WSW 3.4 mph5.5 kmh 30.57 in1035.2 mb 0.00 in0.0 mm 0.00 in0.0 mm 0.00 in0.0 mm
01:55 PM 36.0°F2.2°C 26.6°F-3.0°C 68% 2.4 mph WSW3.9 kmh WSW 3.6 mph5.8 kmh 30.57 in1035.2 mb 0.00 in0.0 mm 0.00 in0.0 mm 0.00 in0.0 mm
02:00 PM 36.0°F2.2°C 26.6°F-3.0°C 67% 1.9 mph WSW3.1 kmh WSW 3.6 mph5.8 kmh 30.57 in1035.2 mb 0.00 in0.0 mm 0.00 in0.0 mm 0.00 in0.0 mm
02:05 PM 36.0°F2.2°C 26.6°F-3.0°C 67% 2.0 mph WSW3.2 kmh WSW 3.6 mph5.8 kmh 30.57 in1035.2 mb 0.00 in0.0 mm 0.00 in0.0 mm 0.00 in0.0 mm
02:10 PM 36.1°F2.3°C 26.6°F-3.0°C 67% 1.1 mph WSW1.8 kmh WSW 2.7 mph4.3 kmh 30.57 in1035.2 mb 0.00 in0.0 mm 0.00 in0.0 mm 0.00 in0.0 mm
02:15 PM 36.1°F2.3°C 26.6°F-3.0°C 68% 0.5 mph SW0.8 kmh SW 1.6 mph2.6 kmh 30.57 in1035.2 mb 0.00 in0.0 mm 0.00 in0.0 mm 0.00 in0.0 mm
02:20 PM 36.5°F2.5°C 28.4°F-2.0°C 68% 0.7 mph WSW1.1 kmh WSW 1.6 mph2.6 kmh 30.57 in1035.2 mb 0.00 in0.0 mm 0.00 in0.0 mm 0.00 in0.0 mm
02:25 PM 36.5°F2.5°C 26.6°F-3.0°C 67% 0.9 mph W1.4 kmh W 1.6 mph2.6 kmh 30.57 in1035.2 mb 0.00 in0.0 mm 0.00 in0.0 mm 0.00 in0.0 mm
02:30 PM 35.8°F2.1°C 26.6°F-3.0°C 67% 0.9 mph WSW1.4 kmh WSW 1.6 mph2.6 kmh 30.57 in1035.2 mb 0.00 in0.0 mm 0.00 in0.0 mm 0.00 in0.0 mm
02:35 PM 35.6°F2.0°C 26.6°F-3.0°C 67% 0.6 mph SW1.0 kmh SW 1.6 mph2.6 kmh 30.57 in1035.2 mb 0.00 in0.0 mm 0.00 in0.0 mm 0.00 in0.0 mm
02:40 PM 35.4°F1.9°C 26.6°F-3.0°C 68% 0.1 mph WSW0.2 kmh WSW 1.3 mph2.1 kmh 30.57 in1035.2 mb 0.00 in0.0 mm 0.00 in0.0 mm 0.00 in0.0 mm
02:45 PM 35.4°F1.9°C 26.6°F-3.0°C 68% 0.1 mph WSW0.2 kmh WSW 1.1 mph1.8 kmh 30.57 in1035.2 mb 0.00 in0.0 mm 0.00 in0.0 mm 0.00 in0.0 mm
02:50 PM 35.4°F1.9°C 26.6°F-3.0°C 68% 0.2 mph WSW0.3 kmh WSW 1.1 mph1.8 kmh 30.57 in1035.2 mb 0.00 in0.0 mm 0.00 in0.0 mm 0.00 in0.0 mm
02:55 PM 35.2°F1.8°C 26.6°F-3.0°C 68% 0.2 mph WSW0.3 kmh WSW 1.1 mph1.8 kmh 30.57 in1035.2 mb 0.00 in0.0 mm 0.00 in0.0 mm 0.00 in0.0 mm
03:00 PM 35.2°F1.8°C 26.6°F-3.0°C 69% 0.1 mph WSW0.2 kmh WSW 1.1 mph1.8 kmh 30.57 in1035.2 mb 0.00 in0.0 mm 0.00 in0.0 mm 0.00 in0.0 mm
03:05 PM 35.2°F1.8°C 26.6°F-3.0°C 69% Calm Calm -- 30.57 in1035.2 mb 0.00 in0.0 mm 0.00 in0.0 mm 0.00 in0.0 mm
03:10 PM 35.1°F1.7°C 26.6°F-3.0°C 69% 0.1 mph WSW0.2 kmh WSW 0.9 mph1.4 kmh 30.60 in1036.2 mb 0.00 in0.0 mm 0.00 in0.0 mm 0.00 in0.0 mm
03:15 PM 35.1°F1.7°C 26.6°F-3.0°C 69% 0.1 mph WSW0.2 kmh WSW 0.9 mph1.4 kmh 30.60 in1036.2 mb 0.00 in0.0 mm 0.00 in0.0 mm 0.00 in0.0 mm
03:20 PM 34.9°F1.6°C 26.6°F-3.0°C 69% Calm Calm -- 30.60 in1036.2 mb 0.00 in0.0 mm 0.00 in0.0 mm 0.00 in0.0 mm
03:25 PM 34.7°F1.5°C 26.6°F-3.0°C 69% 0.2 mph WSW0.3 kmh WSW 0.9 mph1.4 kmh 30.60 in1036.2 mb 0.00 in0.0 mm 0.00 in0.0 mm 0.00 in0.0 mm
03:30 PM 34.7°F1.5°C 26.6°F-3.0°C 69% 0.2 mph WSW0.3 kmh WSW 0.9 mph1.4 kmh 30.60 in1036.2 mb 0.00 in0.0 mm 0.00 in0.0 mm 0.00 in0.0 mm
03:35 PM 34.7°F1.5°C 26.6°F-3.0°C 69% Calm Calm -- 30.60 in1036.2 mb 0.00 in0.0 mm 0.00 in0.0 mm 0.00 in0.0 mm
03:40 PM 34.5°F1.4°C 26.6°F-3.0°C 70% Calm Calm -- 30.60 in1036.2 mb 0.00 in0.0 mm 0.00 in0.0 mm 0.00 in0.0 mm
03:45 PM 34.3°F1.3°C 26.6°F-3.0°C 70% Calm Calm -- 30.60 in1036.2 mb 0.00 in0.0 mm 0.00 in0.0 mm 0.00 in0.0 mm
03:50 PM 34.2°F1.2°C 26.6°F-3.0°C 70% Calm Calm -- 30.60 in1036.2 mb 0.00 in0.0 mm 0.00 in0.0 mm 0.00 in0.0 mm
03:55 PM 34.0°F1.1°C 24.8°F-4.0°C 70% 0.1 mph SSW0.2 kmh SSW 0.9 mph1.4 kmh 30.57 in1035.2 mb 0.00 in0.0 mm 0.00 in0.0 mm 0.00 in0.0 mm
04:00 PM 33.8°F1.0°C 24.8°F-4.0°C 70% 0.2 mph SW0.3 kmh SW 1.1 mph1.8 kmh 30.57 in1035.2 mb 0.00 in0.0 mm 0.00 in0.0 mm 0.00 in0.0 mm
04:05 PM 33.8°F1.0°C 24.8°F-4.0°C 70% 0.2 mph SW0.3 kmh SW 1.3 mph2.1 kmh 30.57 in1035.2 mb 0.00 in0.0 mm 0.00 in0.0 mm 0.00 in0.0 mm
04:10 PM 33.8°F1.0°C 24.8°F-4.0°C 70% 0.2 mph SW0.3 kmh SW 1.3 mph2.1 kmh 30.60 in1036.2 mb 0.00 in0.0 mm 0.00 in0.0 mm 0.00 in0.0 mm
04:15 PM 33.6°F0.9°C 24.8°F-4.0°C 70% Calm Calm -- 30.60 in1036.2 mb 0.00 in0.0 mm 0.00 in0.0 mm 0.00 in0.0 mm
04:20 PM 33.6°F0.9°C 26.6°F-3.0°C 71% Calm Calm -- 30.60 in1036.2 mb 0.00 in0.0 mm 0.00 in0.0 mm 0.00 in0.0 mm
04:25 PM 33.6°F0.9°C 26.6°F-3.0°C 71% Calm Calm -- 30.60 in1036.2 mb 0.00 in0.0 mm 0.00 in0.0 mm 0.00 in0.0 mm
04:30 PM 33.4°F0.8°C 26.6°F-3.0°C 71% Calm Calm -- 30.60 in1036.2 mb 0.00 in0.0 mm 0.00 in0.0 mm 0.00 in0.0 mm
04:35 PM 33.4°F0.8°C 26.6°F-3.0°C 71% Calm Calm -- 30.60 in1036.2 mb 0.00 in0.0 mm 0.00 in0.0 mm 0.00 in0.0 mm
04:40 PM 33.6°F0.9°C 26.6°F-3.0°C 71% 0.1 mph SSW0.2 kmh SSW 0.9 mph1.4 kmh 30.60 in1036.2 mb 0.00 in0.0 mm 0.00 in0.0 mm 0.00 in0.0 mm
04:45 PM 33.6°F0.9°C 26.6°F-3.0°C 71% 0.1 mph SSW0.2 kmh SSW 0.9 mph1.4 kmh 30.60 in1036.2 mb 0.00 in0.0 mm 0.00 in0.0 mm 0.00 in0.0 mm
04:50 PM 33.6°F0.9°C 26.6°F-3.0°C 71% Calm Calm -- 30.60 in1036.2 mb 0.00 in0.0 mm 0.00 in0.0 mm 0.00 in0.0 mm
04:55 PM 33.6°F0.9°C 26.6°F-3.0°C 71% Calm Calm -- 30.60 in1036.2 mb 0.00 in0.0 mm 0.00 in0.0 mm 0.00 in0.0 mm
05:00 PM 33.4°F0.8°C 26.6°F-3.0°C 71% Calm Calm -- 30.60 in1036.2 mb 0.00 in0.0 mm 0.00 in0.0 mm 0.00 in0.0 mm
05:05 PM 33.4°F0.8°C 26.6°F-3.0°C 71% 0.3 mph SSW0.5 kmh SSW 1.6 mph2.6 kmh 30.60 in1036.2 mb 0.00 in0.0 mm 0.00 in0.0 mm 0.00 in0.0 mm
05:10 PM 33.4°F0.8°C 26.6°F-3.0°C 71% 0.3 mph SSW0.5 kmh SSW 1.6 mph2.6 kmh 30.60 in1036.2 mb 0.00 in0.0 mm 0.00 in0.0 mm 0.00 in0.0 mm
05:15 PM 33.4°F0.8°C 26.6°F-3.0°C 71% 0.1 mph S0.2 kmh S 0.9 mph1.4 kmh 30.60 in1036.2 mb 0.00 in0.0 mm 0.00 in0.0 mm 0.00 in0.0 mm
05:20 PM 33.4°F0.8°C 26.6°F-3.0°C 71% Calm Calm -- 30.60 in1036.2 mb 0.00 in0.0 mm 0.00 in0.0 mm 0.00 in0.0 mm
05:25 PM 33.6°F0.9°C 26.6°F-3.0°C 71% Calm Calm -- 30.60 in1036.2 mb 0.00 in0.0 mm 0.00 in0.0 mm 0.00 in0.0 mm
05:30 PM 33.4°F0.8°C 26.6°F-3.0°C 71% Calm Calm -- 30.60 in1036.2 mb 0.00 in0.0 mm 0.00 in0.0 mm 0.00 in0.0 mm
05:35 PM 33.6°F0.9°C 26.6°F-3.0°C 71% 0.4 mph SSW0.6 kmh SSW 1.3 mph2.1 kmh 30.60 in1036.2 mb 0.00 in0.0 mm 0.00 in0.0 mm 0.00 in0.0 mm
05:40 PM 33.6°F0.9°C 26.6°F-3.0°C 71% 0.3 mph SSW0.5 kmh SSW 1.3 mph2.1 kmh 30.60 in1036.2 mb 0.00 in0.0 mm 0.00 in0.0 mm 0.00 in0.0 mm
05:45 PM 33.6°F0.9°C 26.6°F-3.0°C 71% Calm Calm -- 30.60 in1036.2 mb 0.00 in0.0 mm 0.00 in0.0 mm 0.00 in0.0 mm
05:50 PM 33.4°F0.8°C 26.6°F-3.0°C 71% Calm Calm -- 30.60 in1036.2 mb 0.00 in0.0 mm 0.00 in0.0 mm 0.00 in0.0 mm
05:55 PM 33.3°F0.7°C 24.8°F-4.0°C 71% 0.1 mph SSW0.2 kmh SSW 1.1 mph1.8 kmh 30.60 in1036.2 mb 0.00 in0.0 mm 0.00 in0.0 mm 0.00 in0.0 mm
06:00 PM 33.1°F0.6°C 24.8°F-4.0°C 71% 0.1 mph SSW0.2 kmh SSW 1.1 mph1.8 kmh 30.60 in1036.2 mb 0.00 in0.0 mm 0.00 in0.0 mm 0.00 in0.0 mm
06:05 PM 32.7°F0.4°C 24.8°F-4.0°C 71% Calm Calm -- 30.60 in1036.2 mb 0.00 in0.0 mm 0.00 in0.0 mm 0.00 in0.0 mm
06:10 PM 32.7°F0.4°C 24.8°F-4.0°C 72% Calm Calm -- 30.57 in1035.2 mb 0.00 in0.0 mm 0.00 in0.0 mm 0.00 in0.0 mm
06:15 PM 32.5°F0.3°C 24.8°F-4.0°C 72% 0.1 mph SSW0.2 kmh SSW 0.9 mph1.4 kmh 30.57 in1035.2 mb 0.00 in0.0 mm 0.00 in0.0 mm 0.00 in0.0 mm
06:20 PM 32.4°F0.2°C 24.8°F-4.0°C 72% 0.1 mph SSW0.2 kmh SSW 0.9 mph1.4 kmh 30.57 in1035.2 mb 0.00 in0.0 mm 0.00 in0.0 mm 0.00 in0.0 mm
06:25 PM 32.4°F0.2°C 24.8°F-4.0°C 72% Calm Calm -- 30.60 in1036.2 mb 0.00 in0.0 mm 0.00 in0.0 mm 0.00 in0.0 mm
06:30 PM 32.2°F0.1°C 24.8°F-4.0°C 72% Calm Calm -- 30.60 in1036.2 mb 0.00 in0.0 mm 0.00 in0.0 mm 0.00 in0.0 mm
06:35 PM 32.0°F0.0°C 23.0°F-5.0°C 72% Calm Calm -- 30.60 in1036.2 mb 0.00 in0.0 mm 0.00 in0.0 mm 0.00 in0.0 mm
06:40 PM 32.0°F0.0°C 23.0°F-5.0°C 73% Calm Calm -- 30.60 in1036.2 mb 0.00 in0.0 mm 0.00 in0.0 mm 0.00 in0.0 mm
06:45 PM 32.0°F0.0°C 23.0°F-5.0°C 73% Calm Calm -- 30.60 in1036.2 mb 0.00 in0.0 mm 0.00 in0.0 mm 0.00 in0.0 mm
06:50 PM 32.0°F0.0°C 23.0°F-5.0°C 73% Calm Calm -- 30.60 in1036.2 mb 0.00 in0.0 mm 0.00 in0.0 mm 0.00 in0.0 mm
06:55 PM 31.8°F-0.1°C 23.0°F-5.0°C 73% Calm Calm -- 30.57 in1035.2 mb 0.00 in0.0 mm 0.00 in0.0 mm 0.00 in0.0 mm
07:00 PM 32.0°F0.0°C 23.0°F-5.0°C 73% Calm Calm -- 30.57 in1035.2 mb 0.00 in0.0 mm 0.00 in0.0 mm 0.00 in0.0 mm
07:05 PM 32.0°F0.0°C 23.0°F-5.0°C 73% 0.2 mph ENE0.3 kmh ENE 0.9 mph1.4 kmh 30.57 in1035.2 mb 0.00 in0.0 mm 0.00 in0.0 mm 0.00 in0.0 mm
07:10 PM 32.0°F0.0°C 23.0°F-5.0°C 74% 0.2 mph ENE0.3 kmh ENE 0.9 mph1.4 kmh 30.60 in1036.2 mb 0.00 in0.0 mm 0.00 in0.0 mm 0.00 in0.0 mm
07:15 PM 32.0°F0.0°C 23.0°F-5.0°C 74% Calm Calm -- 30.60 in1036.2 mb 0.00 in0.0 mm 0.00 in0.0 mm 0.00 in0.0 mm
07:20 PM 31.8°F-0.1°C 23.0°F-5.0°C 74% Calm Calm -- 30.60 in1036.2 mb 0.00 in0.0 mm 0.00 in0.0 mm 0.00 in0.0 mm
07:25 PM 32.0°F0.0°C 23.0°F-5.0°C 74% Calm Calm -- 30.57 in1035.2 mb 0.00 in0.0 mm 0.00 in0.0 mm 0.00 in0.0 mm
07:30 PM 32.0°F0.0°C 23.0°F-5.0°C 74% Calm Calm -- 30.57 in1035.2 mb 0.00 in0.0 mm 0.00 in0.0 mm 0.00 in0.0 mm
07:35 PM 32.0°F0.0°C 23.0°F-5.0°C 74% 0.4 mph E0.6 kmh E 1.3 mph2.1 kmh 30.57 in1035.2 mb 0.00 in0.0 mm 0.00 in0.0 mm 0.00 in0.0 mm
07:40 PM 32.2°F0.1°C 24.8°F-4.0°C 74% 0.5 mph E0.8 kmh E 1.3 mph2.1 kmh 30.60 in1036.2 mb 0.00 in0.0 mm 0.00 in0.0 mm 0.00 in0.0 mm
07:45 PM 32.2°F0.1°C 24.8°F-4.0°C 74% 0.1 mph E0.2 kmh E 0.9 mph1.4 kmh 30.60 in1036.2 mb 0.00 in0.0 mm 0.00 in0.0 mm 0.00 in0.0 mm
07:50 PM 32.2°F0.1°C 24.8°F-4.0°C 74% 0.3 mph ENE0.5 kmh ENE 1.6 mph2.6 kmh 30.60 in1036.2 mb 0.00 in0.0 mm 0.00 in0.0 mm 0.00 in0.0 mm
07:55 PM 32.2°F0.1°C 24.8°F-4.0°C 74% 0.2 mph ENE0.3 kmh ENE 1.6 mph2.6 kmh 30.60 in1036.2 mb 0.00 in0.0 mm 0.00 in0.0 mm 0.00 in0.0 mm
08:00 PM 32.2°F0.1°C 26.6°F-3.0°C 75% Calm Calm -- 30.60 in1036.2 mb 0.00 in0.0 mm 0.00 in0.0 mm 0.00 in0.0 mm
08:05 PM 32.0°F0.0°C 23.0°F-5.0°C 75% Calm Calm -- 30.60 in1036.2 mb 0.00 in0.0 mm 0.00 in0.0 mm 0.00 in0.0 mm
08:10 PM 32.0°F0.0°C 23.0°F-5.0°C 75% 0.1 mph NW0.2 kmh NW 0.9 mph1.4 kmh 30.57 in1035.2 mb 0.00 in0.0 mm 0.00 in0.0 mm 0.00 in0.0 mm
08:15 PM 32.0°F0.0°C 23.0°F-5.0°C 75% 0.2 mph NE0.3 kmh NE 1.3 mph2.1 kmh 30.57 in1035.2 mb 0.00 in0.0 mm 0.00 in0.0 mm 0.00 in0.0 mm
08:20 PM 32.2°F0.1°C 26.6°F-3.0°C 75% 0.3 mph ENE0.5 kmh ENE 1.3 mph2.1 kmh 30.57 in1035.2 mb 0.00 in0.0 mm 0.00 in0.0 mm 0.00 in0.0 mm
08:25 PM 32.2°F0.1°C 26.6°F-3.0°C 75% 0.2 mph E0.3 kmh E 1.3 mph2.1 kmh 30.60 in1036.2 mb 0.00 in0.0 mm 0.00 in0.0 mm 0.00 in0.0 mm
08:30 PM 32.4°F0.2°C 26.6°F-3.0°C 75% Calm Calm -- 30.60 in1036.2 mb 0.00 in0.0 mm 0.00 in0.0 mm 0.00 in0.0 mm
08:35 PM 32.4°F0.2°C 26.6°F-3.0°C 75% Calm Calm -- 30.60 in1036.2 mb 0.00 in0.0 mm 0.00 in0.0 mm 0.00 in0.0 mm
08:40 PM 32.4°F0.2°C 26.6°F-3.0°C 75% Calm Calm -- 30.60 in1036.2 mb 0.00 in0.0 mm 0.00 in0.0 mm 0.00 in0.0 mm
08:45 PM 32.4°F0.2°C 26.6°F-3.0°C 75% Calm Calm -- 30.60 in1036.2 mb 0.00 in0.0 mm 0.00 in0.0 mm 0.00 in0.0 mm
08:50 PM 32.4°F0.2°C 26.6°F-3.0°C 76% Calm Calm -- 30.60 in1036.2 mb 0.00 in0.0 mm 0.00 in0.0 mm 0.00 in0.0 mm
08:55 PM 32.4°F0.2°C 26.6°F-3.0°C 76% Calm Calm -- 30.60 in1036.2 mb 0.00 in0.0 mm 0.00 in0.0 mm 0.00 in0.0 mm
09:00 PM 32.5°F0.3°C 26.6°F-3.0°C 76% Calm Calm -- 30.60 in1036.2 mb 0.00 in0.0 mm 0.00 in0.0 mm 0.00 in0.0 mm
09:05 PM 32.4°F0.2°C 26.6°F-3.0°C 76% Calm Calm -- 30.60 in1036.2 mb 0.00 in0.0 mm 0.00 in0.0 mm 0.00 in0.0 mm
09:10 PM 32.5°F0.3°C 26.6°F-3.0°C 76% Calm Calm -- 30.60 in1036.2 mb 0.00 in0.0 mm 0.00 in0.0 mm 0.00 in0.0 mm
09:15 PM 32.5°F0.3°C 26.6°F-3.0°C 76% Calm Calm -- 30.60 in1036.2 mb 0.00 in0.0 mm 0.00 in0.0 mm 0.00 in0.0 mm
09:20 PM 32.5°F0.3°C 26.6°F-3.0°C 76% Calm Calm -- 30.60 in1036.2 mb 0.00 in0.0 mm 0.00 in0.0 mm 0.00 in0.0 mm
09:25 PM 32.5°F0.3°C 26.6°F-3.0°C 76% Calm Calm -- 30.60 in1036.2 mb 0.00 in0.0 mm 0.00 in0.0 mm 0.00 in0.0 mm
09:30 PM 32.5°F0.3°C 26.6°F-3.0°C 76% Calm Calm -- 30.60 in1036.2 mb 0.00 in0.0 mm 0.00 in0.0 mm 0.00 in0.0 mm
09:35 PM 32.5°F0.3°C 26.6°F-3.0°C 76% Calm Calm -- 30.60 in1036.2 mb 0.00 in0.0 mm 0.00 in0.0 mm 0.00 in0.0 mm
09:40 PM 32.5°F0.3°C 26.6°F-3.0°C 76% Calm Calm -- 30.57 in1035.2 mb 0.00 in0.0 mm 0.00 in0.0 mm 0.00 in0.0 mm
09:45 PM 32.5°F0.3°C 26.6°F-3.0°C 76% Calm Calm -- 30.57 in1035.2 mb 0.00 in0.0 mm 0.00 in0.0 mm 0.00 in0.0 mm
09:50 PM 32.7°F0.4°C 26.6°F-3.0°C 76% 0.1 mph WNW0.2 kmh WNW 0.9 mph1.4 kmh 30.57 in1035.2 mb 0.00 in0.0 mm 0.00 in0.0 mm 0.00 in0.0 mm
09:55 PM 32.7°F0.4°C 26.6°F-3.0°C 76% 0.1 mph WNW0.2 kmh WNW 0.9 mph1.4 kmh 30.60 in1036.2 mb 0.00 in0.0 mm 0.00 in0.0 mm 0.00 in0.0 mm
10:00 PM 32.7°F0.4°C 26.6°F-3.0°C 76% Calm Calm -- 30.60 in1036.2 mb 0.00 in0.0 mm 0.00 in0.0 mm 0.00 in0.0 mm
10:05 PM 32.7°F0.4°C 26.6°F-3.0°C 76% Calm Calm -- 30.60 in1036.2 mb 0.00 in0.0 mm 0.00 in0.0 mm 0.00 in0.0 mm
10:10 PM 32.7°F0.4°C 26.6°F-3.0°C 76% Calm Calm -- 30.57 in1035.2 mb 0.00 in0.0 mm 0.00 in0.0 mm 0.00 in0.0 mm
10:15 PM 32.7°F0.4°C 26.6°F-3.0°C 76% Calm Calm -- 30.57 in1035.2 mb 0.00 in0.0 mm 0.00 in0.0 mm 0.00 in0.0 mm
10:20 PM 32.7°F0.4°C 26.6°F-3.0°C 76% Calm Calm -- 30.57 in1035.2 mb 0.00 in0.0 mm 0.00 in0.0 mm 0.00 in0.0 mm
10:25 PM 32.7°F0.4°C 26.6°F-3.0°C 76% Calm Calm -- 30.57 in1035.2 mb 0.00 in0.0 mm 0.00 in0.0 mm 0.00 in0.0 mm
10:30 PM 32.7°F0.4°C 26.6°F-3.0°C 76% Calm Calm -- 30.57 in1035.2 mb 0.00 in0.0 mm 0.00 in0.0 mm 0.00 in0.0 mm
10:35 PM 32.7°F0.4°C 26.6°F-3.0°C 76% 0.2 mph WSW0.3 kmh WSW 1.3 mph2.1 kmh 30.57 in1035.2 mb 0.00 in0.0 mm 0.00 in0.0 mm 0.00 in0.0 mm
10:40 PM 32.7°F0.4°C 26.6°F-3.0°C 75% 0.3 mph WSW0.5 kmh WSW 1.3 mph2.1 kmh 30.57 in1035.2 mb 0.00 in0.0 mm 0.00 in0.0 mm 0.00 in0.0 mm
10:45 PM 32.7°F0.4°C 26.6°F-3.0°C 75% 0.6 mph WNW1.0 kmh WNW 1.1 mph1.8 kmh 30.57 in1035.2 mb 0.00 in0.0 mm 0.00 in0.0 mm 0.00 in0.0 mm
10:50 PM 32.7°F0.4°C 26.6°F-3.0°C 75% 0.4 mph NW0.6 kmh NW 1.1 mph1.8 kmh 30.57 in1035.2 mb 0.00 in0.0 mm 0.00 in0.0 mm 0.00 in0.0 mm
10:55 PM 32.7°F0.4°C 26.6°F-3.0°C 75% 0.4 mph WSW0.6 kmh WSW 1.3 mph2.1 kmh 30.57 in1035.2 mb 0.00 in0.0 mm 0.00 in0.0 mm 0.00 in0.0 mm
11:00 PM 32.7°F0.4°C 26.6°F-3.0°C 75% 0.4 mph W0.6 kmh W 1.3 mph2.1 kmh 30.57 in1035.2 mb 0.00 in0.0 mm 0.00 in0.0 mm 0.00 in0.0 mm
11:05 PM 32.7°F0.4°C 26.6°F-3.0°C 75% 0.1 mph NNW0.2 kmh NNW 0.9 mph1.4 kmh 30.57 in1035.2 mb 0.00 in0.0 mm 0.00 in0.0 mm 0.00 in0.0 mm
11:10 PM 32.7°F0.4°C 26.6°F-3.0°C 75% Calm Calm -- 30.57 in1035.2 mb 0.00 in0.0 mm 0.00 in0.0 mm 0.00 in0.0 mm
11:15 PM 32.7°F0.4°C 26.6°F-3.0°C 75% Calm Calm -- 30.57 in1035.2 mb 0.00 in0.0 mm 0.00 in0.0 mm 0.00 in0.0 mm
11:20 PM 32.7°F0.4°C 26.6°F-3.0°C 75% 0.1 mph NNW0.2 kmh NNW 0.9 mph1.4 kmh 30.57 in1035.2 mb 0.00 in0.0 mm 0.00 in0.0 mm 0.00 in0.0 mm
11:25 PM 32.7°F0.4°C 26.6°F-3.0°C 76% 0.1 mph NNW0.2 kmh NNW 0.9 mph1.4 kmh 30.57 in1035.2 mb 0.00 in0.0 mm 0.00 in0.0 mm 0.00 in0.0 mm
11:30 PM 32.7°F0.4°C 26.6°F-3.0°C 76% 0.1 mph NNW0.2 kmh NNW 0.9 mph1.4 kmh 30.57 in1035.2 mb 0.00 in0.0 mm 0.00 in0.0 mm 0.00 in0.0 mm
11:35 PM 32.7°F0.4°C 26.6°F-3.0°C 76% Calm Calm -- 30.57 in1035.2 mb 0.00 in0.0 mm 0.00 in0.0 mm 0.00 in0.0 mm
11:40 PM 32.9°F0.5°C 26.6°F-3.0°C 76% 0.2 mph NW0.3 kmh NW 1.1 mph1.8 kmh 30.57 in1035.2 mb 0.00 in0.0 mm 0.00 in0.0 mm 0.00 in0.0 mm
11:45 PM 32.9°F0.5°C 26.6°F-3.0°C 76% 0.3 mph NW0.5 kmh NW 1.1 mph1.8 kmh 30.57 in1035.2 mb 0.00 in0.0 mm 0.00 in0.0 mm 0.00 in0.0 mm
11:50 PM 32.9°F0.5°C 26.6°F-3.0°C 76% 0.2 mph E0.3 kmh E 0.9 mph1.4 kmh 30.57 in1035.2 mb 0.00 in0.0 mm 0.00 in0.0 mm 0.00 in0.0 mm
11:55 PM 32.9°F0.5°C 26.6°F-3.0°C 76% 0.1 mph ESE0.2 kmh ESE 0.9 mph1.4 kmh 30.54 in1034.2 mb 0.00 in0.0 mm 0.00 in0.0 mm 0.00 in0.0 mm